Apple River, Illinois
Current Conditions -  °F | °C
As of 3:35 PM on Monday 24 Nov 2014 (Local Time) from KPVB Reporting Station
Overcast Overcast  
Wind Chill:   Ceiling: 1000
Heat Index: 24°   Visibility: 10mi
Dew Point: 22°   Wind: 23mph
Humidity: 91%   Direction: 260°W
Pressure: 29.54"   Gusts: NA
Location:  42.51°N, 90.1°W
Report Text: KPVB 242135Z AUTO 26020KT 10SM OVC010 M04/M06 A2954 RMK AO1 T10451057
Loading
Personal Weather Stations






























Interactive Weather Map New forecast layout! Learn more

10-Day Weather Forecast

Advertisements
Track Severe Weather on mobile